createdAt,value
2018-12-01T14:21:18.863Z,6.54
2018-12-01T14:23:53.692Z,7.28
2018-12-01T14:26:28.669Z,8.08
2018-12-01T14:29:03.558Z,8.73
2018-12-01T14:31:38.484Z,9.20
2018-12-01T14:34:13.517Z,9.36
2018-12-01T14:36:48.555Z,9.56
2018-12-01T14:39:23.400Z,9.63
2018-12-01T14:41:58.522Z,9.80
2018-12-01T14:44:33.758Z,9.85
2018-12-01T14:47:08.685Z,10.12
2018-12-01T14:49:43.515Z,10.24
2018-12-01T14:52:20.206Z,10.29
2018-12-01T14:54:54.915Z,10.43
2018-12-01T14:57:29.783Z,10.41
2018-12-01T15:00:07.647Z,10.53
2018-12-01T15:02:42.272Z,10.56
2018-12-01T15:05:17.098Z,10.64
2018-12-01T15:07:51.912Z,10.73
2018-12-01T15:10:27.986Z,10.76
2018-12-01T15:13:02.710Z,10.78
2018-12-01T15:15:38.153Z,10.82
2018-12-01T15:18:14.009Z,10.79
2018-12-01T15:20:49.141Z,10.68
2018-12-01T15:23:23.971Z,10.71
2018-12-01T15:25:58.799Z,10.79
2018-12-01T15:28:34.037Z,10.81
2018-12-01T15:31:09.012Z,10.82
2018-12-01T15:33:44.207Z,10.88
2018-12-01T15:36:19.036Z,10.87
2018-12-01T15:38:54.481Z,10.86
2018-12-01T15:41:30.537Z,10.86
2018-12-01T15:44:06.185Z,10.83
2018-12-01T15:46:41.015Z,10.84
2018-12-01T15:49:15.946Z,10.81
2018-12-01T15:51:51.496Z,10.81
2018-12-01T15:54:26.421Z,10.83
2018-12-01T15:57:02.177Z,10.86
2018-12-01T15:59:37.224Z,10.86
2018-12-01T16:02:12.322Z,10.89
2018-12-01T16:04:47.172Z,10.86
2018-12-01T16:07:22.004Z,10.76
2018-12-01T16:09:56.932Z,10.77
2018-12-01T16:12:31.605Z,10.65
2018-12-01T16:15:10.600Z,10.72
2018-12-01T16:17:45.617Z,10.75
2018-12-01T16:20:20.554Z,10.59
2018-12-01T16:22:55.363Z,10.65
2018-12-01T16:25:30.309Z,10.72
2018-12-01T16:28:05.241Z,10.62
2018-12-01T16:30:43.278Z,10.57
2018-12-01T16:33:21.167Z,10.61
2018-12-01T16:35:56.075Z,10.50
2018-12-01T16:38:34.237Z,10.45
2018-12-01T16:41:20.869Z,10.37
2018-12-01T16:43:55.822Z,10.15
2018-12-01T16:46:30.752Z,10.37
2018-12-01T16:49:06.002Z,10.40
2018-12-01T16:51:41.005Z,10.53
2018-12-01T16:54:16.058Z,10.55
2018-12-01T16:56:51.091Z,10.61
2018-12-01T16:59:26.332Z,10.64
2018-12-01T17:02:01.265Z,10.54
2018-12-01T17:04:36.296Z,10.53
2018-12-01T17:07:11.021Z,10.44
2018-12-01T17:09:45.958Z,10.20
2018-12-01T17:12:20.883Z,10.18
2018-12-01T17:14:55.894Z,10.21
2018-12-01T17:17:30.849Z,10.21
2018-12-01T17:20:08.937Z,9.94
2018-12-01T17:22:49.213Z,9.98
2018-12-01T17:25:24.303Z,10.04
2018-12-01T17:27:59.913Z,10.04
2018-12-01T17:30:34.824Z,10.07
2018-12-01T17:33:10.780Z,10.05
2018-12-01T17:35:45.814Z,10.02
2018-12-01T17:38:21.622Z,10.01
2018-12-01T17:41:16.723Z,10.00
2018-12-01T17:43:55.489Z,9.95
2018-12-01T17:46:30.319Z,9.91
2018-12-01T17:49:05.762Z,9.90
2018-12-01T17:51:40.591Z,9.89
2018-12-01T17:54:17.044Z,9.93
2018-12-01T17:56:52.195Z,9.96
2018-12-01T17:59:26.951Z,9.96
2018-12-01T18:02:01.959Z,9.90
2018-12-01T18:04:36.887Z,9.87
2018-12-01T18:07:11.923Z,9.73
2018-12-01T18:09:47.056Z,9.57
2018-12-01T18:12:21.679Z,9.26
2018-12-01T18:14:56.510Z,9.03
2018-12-01T18:17:31.543Z,9.08
2018-12-01T18:20:12.508Z,9.29
2018-12-01T18:22:51.835Z,9.24
2018-12-01T18:25:27.765Z,9.22
2018-12-01T18:28:02.741Z,9.41
2018-12-01T18:30:38.773Z,9.59
2018-12-01T18:33:22.533Z,9.68
2018-12-01T18:35:57.362Z,9.85
2018-12-01T18:38:33.214Z,9.65
2018-12-01T18:41:09.247Z,9.93
2018-12-01T18:43:44.307Z,9.81
2018-12-01T18:46:19.342Z,9.58
2018-12-01T18:48:54.171Z,9.51
2018-12-01T18:51:29.099Z,9.55
2018-12-01T18:54:04.030Z,9.63
2018-12-01T18:56:39.883Z,9.59
2018-12-01T18:59:14.816Z,9.48
2018-12-01T19:01:51.794Z,9.52
2018-12-01T19:04:26.828Z,9.34
2018-12-01T19:07:01.658Z,8.94
2018-12-01T19:09:36.690Z,8.98
2018-12-01T19:12:11.520Z,9.31
2018-12-01T19:14:46.348Z,9.18
2018-12-01T19:17:21.484Z,9.26
2018-12-01T19:19:56.416Z,9.51
2018-12-01T19:22:31.454Z,9.51
2018-12-01T19:25:11.808Z,9.45
2018-12-01T19:27:47.051Z,9.25
2018-12-01T19:30:22.708Z,9.25
2018-12-01T19:33:03.273Z,9.31
2018-12-01T19:35:38.294Z,9.50
2018-12-01T19:38:16.205Z,9.65
2018-12-01T19:40:51.124Z,9.65
2018-12-01T19:43:26.367Z,9.68
2018-12-01T19:46:02.015Z,9.71
2018-12-01T19:48:36.839Z,9.90
2018-12-01T19:51:11.737Z,9.90
2018-12-01T19:53:46.805Z,9.82
2018-12-01T19:56:21.660Z,9.43
2018-12-01T19:58:57.900Z,9.20
2018-12-01T20:01:34.268Z,9.11
2018-12-01T20:04:09.604Z,9.41
2018-12-01T20:06:45.149Z,9.53
2018-12-01T20:09:20.078Z,9.55
2018-12-01T20:11:54.951Z,9.33
2018-12-01T20:14:29.753Z,8.97
2018-12-01T20:17:04.884Z,8.94
2018-12-01T20:19:39.601Z,8.96
2018-12-01T20:22:14.429Z,9.22
2018-12-01T20:24:49.360Z,9.23
2018-12-01T20:27:24.189Z,9.14
2018-12-01T20:29:59.017Z,9.21
2018-12-01T20:32:34.257Z,9.26
2018-12-01T20:35:10.317Z,9.51
2018-12-01T20:37:47.954Z,9.56
2018-12-01T20:40:22.844Z,9.66
2018-12-01T20:42:58.793Z,9.86
2018-12-01T20:45:34.442Z,9.93
2018-12-01T20:48:09.373Z,9.81
2018-12-01T20:50:44.056Z,9.79
2018-12-01T20:53:19.207Z,9.65
2018-12-01T20:55:56.457Z,9.80
2018-12-01T20:58:32.623Z,9.86
2018-12-01T21:01:07.617Z,9.93
2018-12-01T21:03:42.653Z,9.62
2018-12-01T21:06:17.889Z,9.87
2018-12-01T21:08:52.819Z,9.97
2018-12-01T21:11:27.600Z,9.84
2018-12-01T21:14:02.987Z,9.81
2018-12-01T21:16:38.531Z,9.81
2018-12-01T21:19:13.874Z,9.95
2018-12-01T21:21:48.805Z,9.92
2018-12-01T21:24:23.903Z,10.19
2018-12-01T21:26:58.817Z,10.12
2018-12-01T21:29:34.010Z,10.04
2018-12-01T21:32:09.148Z,10.00
2018-12-01T21:34:44.081Z,10.23
2018-12-01T21:37:19.314Z,10.39
2018-12-01T21:39:54.558Z,10.41
2018-12-01T21:42:30.202Z,10.32
2018-12-01T21:45:05.967Z,9.97
2018-12-01T21:47:40.709Z,9.98
2018-12-01T21:50:17.035Z,10.11
2018-12-01T21:52:53.447Z,10.15
2018-12-01T21:55:28.340Z,10.26
2018-12-01T21:58:03.792Z,10.36
2018-12-01T22:00:40.741Z,10.32
2018-12-01T22:03:16.521Z,10.32
2018-12-01T22:05:53.226Z,10.33
2018-12-01T22:08:28.764Z,10.42
2018-12-01T22:11:03.763Z,10.33
2018-12-01T22:13:38.601Z,10.44
2018-12-01T22:16:13.421Z,10.47
2018-12-01T22:18:48.151Z,10.57
2018-12-01T22:21:23.818Z,10.21
2018-12-01T22:23:58.625Z,10.36
2018-12-01T22:26:33.458Z,10.42
2018-12-01T22:29:08.304Z,10.47
2018-12-01T22:31:43.316Z,10.44
2018-12-01T22:34:17.999Z,10.31
2018-12-01T22:36:52.694Z,10.03
2018-12-01T22:39:27.465Z,10.12
2018-12-01T22:42:02.223Z,10.31
2018-12-01T22:44:37.153Z,10.27
2018-12-01T22:47:12.085Z,10.31
2018-12-01T22:49:47.221Z,10.14
2018-12-01T22:52:22.113Z,10.14
2018-12-01T22:54:57.039Z,10.20
2018-12-01T22:57:32.016Z,10.31
2018-12-01T23:00:11.547Z,10.52
2018-12-01T23:02:46.365Z,10.61
2018-12-01T23:05:21.627Z,10.52
2018-12-01T23:07:56.804Z,10.65
2018-12-01T23:10:31.550Z,10.44
2018-12-01T23:13:07.370Z,10.42
2018-12-01T23:15:42.693Z,10.32
2018-12-01T23:18:19.626Z,9.90
2018-12-01T23:20:54.397Z,9.92
2018-12-01T23:23:29.316Z,9.88
2018-12-01T23:26:04.246Z,10.07
2018-12-01T23:28:38.941Z,10.03
2018-12-01T23:31:13.803Z,9.98
2018-12-01T23:33:48.734Z,9.93
2018-12-01T23:36:23.341Z,9.78
2018-12-01T23:38:58.121Z,9.66
2018-12-01T23:41:33.118Z,9.73
2018-12-01T23:44:10.465Z,9.47
2018-12-01T23:46:45.336Z,9.60
2018-12-01T23:49:20.185Z,9.64
2018-12-01T23:51:55.300Z,9.78
2018-12-01T23:54:29.973Z,9.61
2018-12-01T23:57:05.062Z,9.59
2018-12-01T23:59:39.889Z,9.57
